Time;durP1;ratioP1;P1;durP2;ratioP2;P2;SDS_P1;SDS_P2;PMS_P1;PMS_P2;Temp;Humidity;BMP_temperature;BMP_pressure;BME280_temperature;BME280_humidity;BME280_pressure;Samples;Min_cycle;Max_cycle;Signal;HPM_P1;HPM_P2
2023/11/04 00:01:51;;;;;;;8.82;2.95;;;8.80;99.90;;;;;;5028589;28;20029;-67
2023/11/04 00:04:17;;;;;;;5.35;2.72;;;8.80;99.90;;;;;;5018020;28;20053;-68
2023/11/04 00:06:43;;;;;;;7.63;2.65;;;8.80;99.90;;;;;;5024450;28;20054;-67
2023/11/04 00:09:08;;;;;;;9.27;2.60;;;8.80;99.90;;;;;;5014041;28;20038;-67
2023/11/04 00:11:34;;;;;;;8.50;2.92;;;8.80;99.90;;;;;;5029550;28;20026;-67
2023/11/04 00:14:00;;;;;;;8.60;2.45;;;8.80;99.90;;;;;;5013181;28;20076;-67
2023/11/04 00:16:25;;;;;;;5.30;2.20;;;8.80;99.90;;;;;;5028330;28;20057;-67
2023/11/04 00:18:50;;;;;;;7.68;1.88;;;8.80;99.90;;;;;;5011897;28;20120;-67
2023/11/04 00:21:16;;;;;;;7.78;2.33;;;8.80;99.90;;;;;;5029442;28;20022;-67
2023/11/04 00:23:42;;;;;;;9.52;2.50;;;8.70;99.90;;;;;;5010440;28;20025;-66
2023/11/04 00:26:07;;;;;;;15.93;3.72;;;8.70;99.90;;;;;;5028504;28;20033;-67
2023/11/04 00:28:33;;;;;;;10.43;2.60;;;8.70;99.90;;;;;;5010112;28;20080;-67
2023/11/04 00:30:59;;;;;;;4.65;1.95;;;8.60;99.90;;;;;;5028477;28;20489;-68
2023/11/04 00:33:24;;;;;;;7.10;2.85;;;8.50;99.90;;;;;;5010707;28;20025;-67
2023/11/04 00:35:50;;;;;;;8.25;3.15;;;8.50;99.90;;;;;;5023427;28;20049;-67
2023/11/04 00:38:16;;;;;;;4.82;2.70;;;8.40;99.90;;;;;;5009451;28;20062;-67
2023/11/04 00:40:42;;;;;;;11.55;3.40;;;8.40;99.90;;;;;;5026634;28;20464;-67
2023/11/04 00:43:08;;;;;;;12.25;3.60;;;8.30;99.90;;;;;;5009797;28;20029;-67
2023/11/04 00:45:33;;;;;;;13.68;4.50;;;8.30;99.90;;;;;;5026009;28;20394;-67
2023/11/04 00:47:59;;;;;;;8.98;4.18;;;8.30;99.90;;;;;;5028856;28;20017;-67
2023/11/04 00:50:25;;;;;;;7.70;3.15;;;8.20;99.90;;;;;;5008051;28;20088;-68
2023/11/04 00:52:51;;;;;;;5.05;2.35;;;8.30;99.90;;;;;;5027812;28;20505;-67
2023/11/04 00:55:17;;;;;;;7.63;2.80;;;8.30;99.90;;;;;;5009189;28;20061;-67
2023/11/04 00:57:42;;;;;;;9.77;2.90;;;8.30;99.90;;;;;;5026945;28;20025;-67
2023/11/04 01:00:09;;;;;;;12.27;2.75;;;8.30;99.90;;;;;;5009548;28;20512;-68
2023/11/04 01:02:35;;;;;;;12.15;2.85;;;8.30;99.90;;;;;;5027688;28;20028;-67
2023/11/04 01:05:00;;;;;;;6.63;2.63;;;8.30;99.90;;;;;;5009527;28;20117;-67
2023/11/04 01:07:26;;;;;;;7.47;2.17;;;8.30;99.90;;;;;;5027874;28;20029;-67
2023/11/04 01:09:51;;;;;;;7.70;2.10;;;8.30;99.90;;;;;;5009323;28;20053;-66
2023/11/04 01:12:17;;;;;;;6.47;2.30;;;8.20;99.90;;;;;;5027782;28;20429;-68
2023/11/04 01:14:42;;;;;;;6.45;1.80;;;8.30;99.90;;;;;;5028629;28;20029;-67
2023/11/04 01:17:08;;;;;;;5.40;2.35;;;8.20;99.90;;;;;;5016314;28;20036;-66
2023/11/04 01:19:33;;;;;;;6.45;2.17;;;8.20;99.90;;;;;;5014242;28;20029;-66
2023/11/04 01:21:59;;;;;;;8.95;2.55;;;8.20;99.90;;;;;;5026133;28;20025;-67
2023/11/04 01:24:24;;;;;;;4.82;1.50;;;8.20;99.90;;;;;;5028450;28;20397;-68
2023/11/04 01:26:53;;;;;;;5.88;1.45;;;8.20;99.90;;;;;;5019216;28;20032;-66
2023/11/04 01:29:19;;;;;;;4.10;1.70;;;8.20;99.90;;;;;;5008712;28;20508;-67
2023/11/04 01:31:44;;;;;;;8.10;2.08;;;8.20;99.90;;;;;;5026085;28;20025;-66
2023/11/04 01:34:11;;;;;;;6.47;2.10;;;8.20;99.90;;;;;;5022484;28;20029;-67
2023/11/04 01:36:36;;;;;;;8.55;1.80;;;8.10;99.90;;;;;;5012859;28;20069;-67
2023/11/04 01:39:02;;;;;;;4.40;1.55;;;8.10;99.90;;;;;;5027440;28;20034;-67
2023/11/04 01:41:28;;;;;;;6.60;1.88;;;8.10;99.90;;;;;;5026976;28;20033;-68
2023/11/04 01:43:53;;;;;;;11.25;2.40;;;8.10;99.90;;;;;;5023165;28;20041;-67
2023/11/04 01:46:22;;;;;;;6.30;1.90;;;8.10;99.90;;;;;;5028227;28;20033;-67
2023/11/04 01:48:48;;;;;;;7.07;1.98;;;8.10;99.90;;;;;;5021862;28;20076;-67
2023/11/04 01:51:15;;;;;;;13.43;2.15;;;8.10;99.90;;;;;;5028094;28;20409;-67
2023/11/04 01:53:46;;;;;;;4.50;1.50;;;8.00;99.90;;;;;;5021006;28;20033;-66
2023/11/04 01:56:16;;;;;;;8.27;2.53;;;8.00;99.90;;;;;;4989023;28;20503;-67
2023/11/04 01:58:44;;;;;;;7.82;1.52;;;8.00;99.90;;;;;;5029431;28;20698;-66
2023/11/04 02:01:10;;;;;;;6.88;1.85;;;8.00;99.90;;;;;;5032160;28;20029;-68
2023/11/04 02:03:37;;;;;;;7.65;2.03;;;8.00;99.90;;;;;;5022588;28;20111;-67
2023/11/04 02:06:03;;;;;;;5.60;1.73;;;8.00;99.90;;;;;;5031835;28;20021;-67
2023/11/04 02:08:28;;;;;;;5.28;1.60;;;7.90;99.90;;;;;;5023024;28;20084;-66
2023/11/04 02:10:54;;;;;;;6.78;1.60;;;7.90;99.90;;;;;;5012553;28;20322;-66
2023/11/04 02:13:20;;;;;;;5.20;1.50;;;7.90;99.90;;;;;;5030764;28;20057;-67
2023/11/04 02:15:45;;;;;;;6.13;1.60;;;7.90;99.90;;;;;;5012567;28;20073;-67
2023/11/04 02:18:11;;;;;;;2.92;1.23;;;7.90;99.90;;;;;;5030887;28;20029;-67
2023/11/04 02:20:38;;;;;;;6.15;1.58;;;7.90;99.90;;;;;;5029789;28;20025;-66
2023/11/04 02:23:04;;;;;;;3.63;1.48;;;7.90;99.90;;;;;;5012258;28;20022;-67
2023/11/04 02:25:31;;;;;;;4.40;1.50;;;7.90;99.90;;;;;;5030731;28;20056;-66
2023/11/04 02:27:57;;;;;;;8.55;1.80;;;7.90;99.90;;;;;;5031614;28;20033;-68
2023/11/04 02:30:22;;;;;;;8.27;1.90;;;7.90;99.90;;;;;;5029702;28;20037;-67
2023/11/04 02:32:49;;;;;;;7.03;1.73;;;7.90;99.90;;;;;;5031381;28;20032;-66
2023/11/04 02:35:15;;;;;;;5.53;1.23;;;7.90;99.90;;;;;;5027991;28;20414;-67
2023/11/04 02:37:41;;;;;;;8.85;2.30;;;7.90;99.90;;;;;;5008299;28;20109;-67
2023/11/04 02:40:09;;;;;;;4.55;1.55;;;7.90;99.90;;;;;;5030660;28;20409;-67
2023/11/04 02:42:35;;;;;;;4.10;1.67;;;7.90;99.90;;;;;;5031366;28;20575;-67
2023/11/04 02:45:02;;;;;;;5.07;1.80;;;7.80;99.90;;;;;;5025082;28;20057;-66
2023/11/04 02:47:28;;;;;;;6.40;1.88;;;7.80;99.90;;;;;;5031175;28;20045;-67
2023/11/04 02:49:53;;;;;;;6.70;1.40;;;7.80;99.90;;;;;;5022266;28;20029;-66
2023/11/04 02:52:19;;;;;;;11.10;1.80;;;7.80;99.90;;;;;;5031067;28;20551;-66
2023/11/04 02:54:44;;;;;;;8.20;1.98;;;7.70;99.90;;;;;;5023591;28;20076;-66
2023/11/04 02:57:11;;;;;;;6.97;1.45;;;7.70;99.90;;;;;;5030997;28;20049;-67
2023/11/04 02:59:37;;;;;;;4.57;1.70;;;7.70;99.90;;;;;;5022247;28;20481;-67
2023/11/04 03:02:03;;;;;;;4.93;1.63;;;7.60;99.90;;;;;;5012143;28;20041;-66
2023/11/04 03:04:29;;;;;;;8.80;1.83;;;7.60;99.90;;;;;;5030112;28;20413;-66
2023/11/04 03:06:54;;;;;;;4.82;1.73;;;7.50;99.90;;;;;;5011518;28;20084;-66
2023/11/04 03:09:20;;;;;;;5.80;1.77;;;7.40;99.90;;;;;;5029481;28;20038;-67
2023/11/04 03:11:45;;;;;;;9.15;2.53;;;7.40;99.90;;;;;;5011524;28;20029;-66
2023/11/04 03:14:11;;;;;;;5.68;1.27;;;7.30;99.90;;;;;;5029863;28;20086;-68
2023/11/04 03:16:37;;;;;;;5.60;1.83;;;7.30;99.90;;;;;;5030779;28;20033;-66
2023/11/04 03:19:03;;;;;;;5.68;1.70;;;7.20;99.90;;;;;;5015953;28;20021;-66
2023/11/04 03:21:28;;;;;;;5.43;1.63;;;7.20;99.90;;;;;;5030587;28;20444;-66
2023/11/04 03:23:54;;;;;;;3.88;1.67;;;7.10;99.90;;;;;;5016187;28;20053;-67
2023/11/04 03:26:19;;;;;;;5.85;1.80;;;7.10;99.90;;;;;;5030760;28;20533;-66
2023/11/04 03:28:45;;;;;;;7.63;1.83;;;7.10;99.90;;;;;;5014931;28;20033;-66
2023/11/04 03:31:10;;;;;;;8.20;1.77;;;7.00;99.90;;;;;;5030580;28;20037;-66
2023/11/04 03:33:37;;;;;;;7.95;1.58;;;6.90;99.90;;;;;;5012288;28;20081;-66
2023/11/04 03:36:03;;;;;;;7.75;1.48;;;6.90;99.90;;;;;;5014215;28;20041;-66
2023/11/04 03:38:28;;;;;;;6.80;1.40;;;6.90;99.90;;;;;;5029892;28;20041;-66
2023/11/04 03:40:54;;;;;;;7.38;1.38;;;6.80;99.90;;;;;;5029019;28;20476;-68
2023/11/04 03:43:20;;;;;;;7.13;1.80;;;6.70;99.90;;;;;;5010229;28;20036;-66
2023/11/04 03:45:46;;;;;;;6.45;1.50;;;6.70;99.90;;;;;;5030287;28;20105;-66
2023/11/04 03:48:11;;;;;;;5.68;1.63;;;6.60;99.90;;;;;;5010983;28;20116;-66
2023/11/04 03:50:36;;;;;;;8.73;1.30;;;6.60;99.90;;;;;;5027707;28;20041;-66
2023/11/04 03:53:02;;;;;;;7.80;2.17;;;6.50;99.90;;;;;;5010651;28;20034;-66
2023/11/04 03:55:27;;;;;;;4.63;1.40;;;6.50;99.90;;;;;;5029127;28;20051;-67
2023/11/04 03:57:53;;;;;;;5.10;1.55;;;6.40;99.90;;;;;;5030479;28;20034;-69
2023/11/04 04:00:19;;;;;;;8.07;1.90;;;6.40;99.90;;;;;;5029209;28;20097;-86
2023/11/04 04:02:45;;;;;;;7.40;1.90;;;6.30;99.90;;;;;;5031720;28;20026;-84
2023/11/04 04:05:10;;;;;;;6.82;1.52;;;6.30;99.90;;;;;;5012387;28;20038;-84
2023/11/04 04:07:36;;;;;;;10.40;2.20;;;6.20;99.90;;;;;;5030881;28;20064;-85
2023/11/04 04:10:02;;;;;;;4.80;1.80;;;6.20;99.90;;;;;;5027004;28;20080;-85
2023/11/04 04:12:27;;;;;;;4.30;1.48;;;6.10;99.90;;;;;;5031760;28;20500;-84
2023/11/04 04:14:53;;;;;;;3.50;1.42;;;6.10;99.90;;;;;;5025509;28;20119;-84
2023/11/04 04:17:18;;;;;;;6.05;1.70;;;6.10;99.90;;;;;;5031352;28;20508;-86
2023/11/04 04:19:44;;;;;;;6.30;1.35;;;6.00;99.90;;;;;;5022293;28;20030;-84
2023/11/04 04:22:10;;;;;;;7.38;1.88;;;6.00;99.90;;;;;;5030621;28;20525;-84
2023/11/04 04:24:38;;;;;;;7.07;1.63;;;5.90;99.90;;;;;;5021614;28;20379;-84
2023/11/04 04:27:04;;;;;;;6.63;1.42;;;5.80;99.90;;;;;;5011693;28;20022;-86
2023/11/04 04:29:30;;;;;;;5.05;1.52;;;5.80;99.90;;;;;;5030458;28;20031;-85
2023/11/04 04:31:56;;;;;;;5.25;1.75;;;5.80;99.90;;;;;;5010943;28;20038;-83
2023/11/04 04:34:22;;;;;;;14.00;2.03;;;5.70;99.90;;;;;;5031024;28;20036;-88
2023/11/04 04:36:48;;;;;;;11.85;1.77;;;5.70;99.90;;;;;;5019435;28;20144;-87
2023/11/04 04:39:13;;;;;;;7.32;1.52;;;5.70;99.90;;;;;;5020815;28;20029;-88
2023/11/04 04:41:39;;;;;;;7.68;1.83;;;5.70;99.90;;;;;;5031251;28;20025;-88
2023/11/04 04:44:05;;;;;;;8.23;1.77;;;5.60;99.90;;;;;;5018672;28;20026;-88
2023/11/04 04:46:31;;;;;;;7.30;1.63;;;5.60;99.90;;;;;;5031038;28;20025;-86
2023/11/04 04:48:57;;;;;;;6.35;1.83;;;5.60;99.90;;;;;;5015739;28;20061;-87
2023/11/04 04:51:23;;;;;;;5.65;1.58;;;5.50;99.90;;;;;;5030944;28;20057;-86
2023/11/04 04:53:49;;;;;;;12.55;2.38;;;5.50;99.90;;;;;;5015983;28;20032;-88
2023/11/04 04:56:15;;;;;;;5.90;1.80;;;5.50;99.90;;;;;;5031176;28;20045;-85
2023/11/04 04:58:41;;;;;;;3.72;1.20;;;5.40;99.90;;;;;;5011285;28;20104;-86
2023/11/04 05:01:16;;;;;;;3.53;1.35;;;5.40;99.90;;;;;;5030483;28;20025;-85
2023/11/04 05:03:41;;;;;;;7.60;1.55;;;5.30;99.90;;;;;;4997181;28;20021;-86
2023/11/04 05:06:07;;;;;;;7.82;1.70;;;5.30;99.90;;;;;;5031192;28;20414;-87
2023/11/04 05:08:32;;;;;;;4.80;1.55;;;5.30;99.90;;;;;;5011564;28;20079;-85
2023/11/04 05:10:58;;;;;;;7.15;1.50;;;5.20;99.90;;;;;;5030075;28;20061;-87
2023/11/04 05:13:24;;;;;;;3.33;1.35;;;5.20;99.90;;;;;;5012337;28;20037;-86
2023/11/04 05:15:50;;;;;;;10.80;1.98;;;5.20;99.90;;;;;;5030821;28;20021;-87
2023/11/04 05:18:16;;;;;;;6.80;1.67;;;5.20;99.90;;;;;;5010152;28;20026;-84
2023/11/04 05:20:42;;;;;;;5.95;1.55;;;5.20;99.90;;;;;;5030700;28;20029;-86
2023/11/04 05:23:07;;;;;;;5.60;1.67;;;5.10;99.90;;;;;;5011438;28;20100;-85
2023/11/04 05:25:33;;;;;;;13.25;1.83;;;5.10;99.90;;;;;;5030013;28;20045;-86
2023/11/04 05:27:58;;;;;;;5.72;1.50;;;5.10;99.90;;;;;;5010496;28;20037;-85
2023/11/04 05:30:25;;;;;;;9.07;1.60;;;5.10;99.90;;;;;;5030005;28;20041;-87
2023/11/04 05:32:51;;;;;;;5.57;1.45;;;5.00;99.90;;;;;;5012191;28;20030;-87
2023/11/04 05:35:17;;;;;;;8.23;1.95;;;5.00;99.90;;;;;;5026769;28;20111;-86
2023/11/04 05:37:43;;;;;;;5.07;1.83;;;5.10;99.90;;;;;;5027054;28;20029;-86
2023/11/04 05:40:09;;;;;;;3.17;1.75;;;5.00;99.90;;;;;;5016090;28;20504;-86
2023/11/04 05:42:34;;;;;;;9.38;1.90;;;5.00;99.90;;;;;;5033934;28;20049;-86
2023/11/04 05:45:00;;;;;;;3.88;1.40;;;5.00;99.90;;;;;;5015640;28;20037;-86
2023/11/04 05:47:26;;;;;;;6.25;2.08;;;5.00;99.90;;;;;;5034189;28;20041;-86
2023/11/04 05:49:51;;;;;;;3.58;1.52;;;5.00;99.90;;;;;;5026643;28;20049;-85
2023/11/04 05:52:17;;;;;;;5.60;1.88;;;5.00;99.90;;;;;;5033072;28;20064;-85
2023/11/04 05:54:43;;;;;;;7.70;1.60;;;5.10;99.90;;;;;;5014903;28;20477;-85
2023/11/04 05:57:08;;;;;;;7.38;1.70;;;5.10;99.90;;;;;;5032558;28;20505;-85
2023/11/04 05:59:33;;;;;;;11.48;1.60;;;5.10;99.90;;;;;;5015010;28;20081;-85
2023/11/04 06:01:59;;;;;;;6.63;2.08;;;5.10;99.90;;;;;;5033465;28;20060;-83
2023/11/04 06:04:24;;;;;;;3.67;1.27;;;5.10;99.90;;;;;;5014987;28;20540;-83
2023/11/04 06:06:50;;;;;;;6.68;1.75;;;5.10;99.90;;;;;;5033347;28;20083;-84
2023/11/04 06:09:16;;;;;;;5.28;1.75;;;5.10;99.90;;;;;;5013372;28;20035;-84
2023/11/04 06:11:42;;;;;;;3.65;1.30;;;5.10;99.90;;;;;;5032081;28;20030;-84
2023/11/04 06:14:08;;;;;;;4.07;1.88;;;5.10;99.90;;;;;;5021366;28;20096;-84
2023/11/04 06:16:34;;;;;;;6.30;1.65;;;5.20;99.90;;;;;;5033760;28;20022;-84
2023/11/04 06:19:00;;;;;;;11.45;2.10;;;5.20;99.90;;;;;;5018711;28;20133;-84
2023/11/04 06:21:25;;;;;;;3.13;1.25;;;5.20;99.90;;;;;;5033969;28;20517;-84
2023/11/04 06:23:51;;;;;;;3.33;1.55;;;5.30;99.90;;;;;;5018626;28;20075;-86
2023/11/04 06:26:23;;;;;;;5.25;1.30;;;5.30;99.90;;;;;;5033919;28;20381;-85
2023/11/04 06:28:49;;;;;;;6.75;1.42;;;5.40;99.90;;;;;;5017995;28;20071;-84
2023/11/04 06:31:15;;;;;;;7.57;1.88;;;5.50;99.90;;;;;;5032818;28;20461;-84
2023/11/04 06:33:41;;;;;;;5.55;1.52;;;5.50;99.90;;;;;;5016391;28;20044;-85
2023/11/04 06:36:07;;;;;;;4.15;2.33;;;5.60;99.90;;;;;;5017949;28;20041;-86
2023/11/04 06:38:32;;;;;;;6.75;1.80;;;5.60;99.90;;;;;;5033038;28;20025;-83
2023/11/04 06:40:58;;;;;;;5.85;2.42;;;5.70;99.90;;;;;;5032106;28;20025;-84
2023/11/04 06:43:23;;;;;;;9.80;2.08;;;5.80;99.90;;;;;;5014514;28;20029;-83
2023/11/04 06:45:49;;;;;;;8.50;1.77;;;5.90;99.90;;;;;;5032853;28;20109;-85
2023/11/04 06:48:14;;;;;;;5.80;1.70;;;6.00;99.90;;;;;;5013769;28;20038;-85
2023/11/04 06:50:40;;;;;;;8.05;1.63;;;6.10;99.90;;;;;;5031262;28;20033;-84
2023/11/04 06:53:06;;;;;;;8.50;2.17;;;6.20;99.90;;;;;;5012725;28;20084;-84
2023/11/04 06:55:33;;;;;;;17.48;2.42;;;6.30;99.90;;;;;;5032349;28;20030;-83
2023/11/04 06:57:58;;;;;;;3.60;2.08;;;6.40;99.90;;;;;;5032658;28;20032;-83
2023/11/04 07:00:24;;;;;;;6.05;1.67;;;6.50;99.90;;;;;;5031059;28;20037;-84
2023/11/04 07:02:49;;;;;;;4.95;1.60;;;6.60;99.90;;;;;;5032902;28;20038;-82
2023/11/04 07:05:15;;;;;;;8.52;2.03;;;6.70;99.90;;;;;;5029973;28;20029;-84
2023/11/04 07:07:41;;;;;;;4.43;1.70;;;6.90;99.90;;;;;;5032907;28;20033;-83
2023/11/04 07:10:09;;;;;;;5.03;1.90;;;7.00;99.90;;;;;;5028620;28;20029;-84
2023/11/04 07:12:35;;;;;;;6.38;2.08;;;7.10;99.90;;;;;;5032746;28;20025;-84
2023/11/04 07:15:06;;;;;;;6.32;1.83;;;7.20;99.90;;;;;;5027791;28;20442;-84
2023/11/04 07:17:32;;;;;;;6.80;2.10;;;7.30;99.90;;;;;;4993429;28;20042;-84
2023/11/04 07:19:57;;;;;;;4.03;1.45;;;7.40;99.90;;;;;;5028552;28;20037;-84
2023/11/04 07:22:24;;;;;;;8.85;1.88;;;7.50;99.90;;;;;;5013134;28;20061;-84
2023/11/04 07:24:49;;;;;;;7.47;2.00;;;7.50;99.90;;;;;;5031648;28;20524;-83
2023/11/04 07:27:15;;;;;;;6.07;2.22;;;7.60;99.90;;;;;;5013303;28;20038;-84
2023/11/04 07:29:41;;;;;;;5.25;1.88;;;7.70;99.90;;;;;;5031297;28;20055;-82
2023/11/04 07:32:06;;;;;;;5.38;2.15;;;7.70;99.90;;;;;;5012884;28;20128;-83
2023/11/04 07:34:33;;;;;;;8.15;2.92;;;7.80;99.90;;;;;;5028363;28;20430;-82
2023/11/04 07:37:00;;;;;;;6.57;3.67;;;7.80;99.90;;;;;;5017782;28;20021;-82
2023/11/04 07:39:27;;;;;;;12.15;2.83;;;7.80;99.90;;;;;;5012496;28;20135;-82
2023/11/04 07:41:53;;;;;;;5.90;2.40;;;7.80;99.90;;;;;;5031137;28;20032;-82
2023/11/04 07:44:18;;;;;;;6.55;2.05;;;7.90;99.90;;;;;;5020876;28;20034;-84
2023/11/04 07:46:44;;;;;;;5.50;1.90;;;8.00;99.90;;;;;;5011507;28;20026;-83
2023/11/04 07:49:10;;;;;;;2.85;1.67;;;8.00;99.90;;;;;;5029293;28;20022;-83
2023/11/04 07:51:35;;;;;;;5.85;1.60;;;8.10;99.90;;;;;;5031957;28;20030;-83
2023/11/04 07:54:01;;;;;;;8.63;1.83;;;8.20;99.90;;;;;;5018246;28;20034;-82
2023/11/04 07:56:27;;;;;;;5.43;1.70;;;8.30;99.90;;;;;;5030815;28;20021;-83
2023/11/04 07:58:52;;;;;;;8.25;2.38;;;8.40;99.90;;;;;;5016712;28;20014;-83
2023/11/04 08:01:19;;;;;;;7.47;2.17;;;8.50;99.90;;;;;;5031518;28;20133;-82
2023/11/04 08:03:45;;;;;;;5.45;2.15;;;8.60;99.90;;;;;;5015772;28;20108;-83
2023/11/04 08:06:11;;;;;;;5.97;2.10;;;8.70;99.90;;;;;;5031264;28;20096;-82
2023/11/04 08:08:36;;;;;;;5.35;1.70;;;8.70;99.90;;;;;;5014320;28;20064;-83
2023/11/04 08:11:03;;;;;;;6.10;1.90;;;8.60;99.90;;;;;;5031143;28;20025;-82
2023/11/04 08:13:28;;;;;;;5.65;2.28;;;8.60;99.90;;;;;;5010179;28;20033;-78
2023/11/04 08:15:54;;;;;;;3.67;1.60;;;8.60;99.90;;;;;;5029628;28;20039;-83
2023/11/04 08:18:22;;;;;;;7.40;2.28;;;8.50;99.90;;;;;;5011191;28;20098;-82
2023/11/04 08:20:48;;;;;;;4.00;1.52;;;8.40;99.90;;;;;;4991767;28;20113;-83
2023/11/04 08:23:13;;;;;;;5.32;2.70;;;8.40;99.90;;;;;;5029898;28;20084;-83
2023/11/04 08:25:39;;;;;;;5.43;2.22;;;8.40;99.90;;;;;;5011556;28;20454;-84
2023/11/04 08:28:05;;;;;;;9.40;2.40;;;8.50;99.90;;;;;;5030547;28;20108;-83
2023/11/04 08:30:30;;;;;;;6.85;2.33;;;8.50;99.90;;;;;;5030118;28;20072;-83
2023/11/04 08:32:55;;;;;;;6.63;2.50;;;8.60;99.90;;;;;;5030989;28;20040;-83
2023/11/04 08:35:21;;;;;;;7.00;1.90;;;8.80;99.90;;;;;;5018539;28;20049;-83
2023/11/04 08:37:48;;;;;;;8.07;2.45;;;8.90;99.90;;;;;;5008351;28;20455;-84
2023/11/04 08:40:14;;;;;;;4.18;1.90;;;9.00;99.90;;;;;;5030595;28;20100;-83
2023/11/04 08:42:39;;;;;;;5.95;2.05;;;9.10;99.90;;;;;;5010343;28;20422;-84
2023/11/04 08:45:10;;;;;;;6.22;1.80;;;9.10;99.90;;;;;;5030254;28;20033;-83
2023/11/04 08:47:36;;;;;;;6.07;2.50;;;9.20;99.90;;;;;;4991736;28;20026;-85
2023/11/04 08:50:03;;;;;;;5.75;1.73;;;9.20;99.90;;;;;;5027691;28;20037;-84
2023/11/04 08:52:28;;;;;;;2.63;1.60;;;9.50;99.90;;;;;;5030684;28;20033;-79
2023/11/04 08:54:54;;;;;;;8.07;2.28;;;9.70;99.90;;;;;;5024631;28;20486;-82
2023/11/04 08:57:20;;;;;;;5.10;2.53;;;10.00;99.90;;;;;;5030456;28;20477;-81
2023/11/04 08:59:46;;;;;;;6.53;2.35;;;10.30;99.90;;;;;;5023003;28;20350;-81
2023/11/04 09:02:11;;;;;;;6.05;2.47;;;10.60;99.90;;;;;;5029747;28;20378;-81
2023/11/04 09:04:37;;;;;;;3.97;2.22;;;10.80;99.90;;;;;;5021626;28;20040;-82
2023/11/04 09:07:03;;;;;;;3.65;1.80;;;11.00;99.90;;;;;;5010321;28;20026;-81
2023/11/04 09:09:29;;;;;;;4.32;1.65;;;11.10;97.90;;;;;;5029141;28;20049;-82
2023/11/04 09:11:55;;;;;;;5.82;1.80;;;11.30;94.90;;;;;;5010407;28;20117;-81
2023/11/04 09:14:24;;;;;;;5.90;1.85;;;11.30;95.30;;;;;;5028653;28;20105;-81
2023/11/04 09:16:50;;;;;;;3.42;1.70;;;11.40;93.40;;;;;;5010004;28;20034;-83
2023/11/04 09:19:15;;;;;;;5.40;1.80;;;11.50;93.20;;;;;;5018239;28;20576;-83
2023/11/04 09:21:41;;;;;;;4.75;1.50;;;11.50;93.30;;;;;;5029280;28;20033;-83
2023/11/04 09:24:07;;;;;;;4.80;2.35;;;11.50;91.90;;;;;;5010714;28;20117;-82
2023/11/04 09:26:32;;;;;;;4.57;2.15;;;11.60;91.30;;;;;;5028299;28;20072;-83
2023/11/04 09:28:58;;;;;;;4.93;1.77;;;11.50;88.20;;;;;;5015465;28;20029;-83
2023/11/04 09:31:23;;;;;;;3.80;1.35;;;11.50;89.20;;;;;;5028832;28;20022;-82
2023/11/04 09:33:49;;;;;;;2.30;1.50;;;11.50;87.80;;;;;;5015237;28;20052;-82
2023/11/04 09:36:14;;;;;;;4.65;1.50;;;11.60;88.70;;;;;;5014614;28;20587;-83
2023/11/04 09:38:40;;;;;;;2.30;1.23;;;11.60;87.50;;;;;;5029914;28;20029;-83
2023/11/04 09:41:06;;;;;;;3.13;1.52;;;11.60;84.20;;;;;;5030403;28;20109;-83
2023/11/04 09:43:32;;;;;;;3.70;1.20;;;11.60;85.10;;;;;;5010471;28;20112;-82
2023/11/04 09:46:01;;;;;;;1.98;1.20;;;11.50;86.20;;;;;;5029069;28;20091;-82
2023/11/04 09:48:28;;;;;;;2.25;1.50;;;11.60;86.50;;;;;;5010187;28;20076;-83
2023/11/04 09:50:59;;;;;;;2.08;1.15;;;11.70;86.10;;;;;;5029942;28;20124;-82
2023/11/04 09:53:27;;;;;;;3.67;1.10;;;11.90;86.40;;;;;;4992798;28;20073;-83
2023/11/04 09:55:54;;;;;;;3.83;1.60;;;12.00;85.90;;;;;;5029646;28;20021;-82
2023/11/04 09:58:20;;;;;;;4.70;1.73;;;12.00;84.90;;;;;;5009119;28;20038;-63
2023/11/04 10:00:46;;;;;;;3.60;1.40;;;12.20;82.60;;;;;;5028261;28;20033;-69
2023/11/04 10:03:13;;;;;;;3.10;1.35;;;12.20;82.20;;;;;;5009392;28;20045;-81
2023/11/04 10:05:38;;;;;;;2.13;1.40;;;12.10;81.90;;;;;;5029295;28;20038;-82
2023/11/04 10:08:04;;;;;;;2.35;1.13;;;12.00;82.50;;;;;;5010883;28;20466;-81
2023/11/04 10:10:30;;;;;;;3.05;1.20;;;12.00;83.10;;;;;;5028620;28;20037;-80
2023/11/04 10:12:56;;;;;;;2.97;1.20;;;12.00;82.30;;;;;;5029213;28;20032;-81
2023/11/04 10:15:23;;;;;;;2.25;1.20;;;11.90;79.40;;;;;;5010420;28;20096;-81
2023/11/04 10:17:48;;;;;;;3.92;1.30;;;11.80;80.50;;;;;;5029051;28;20131;-81
2023/11/04 10:20:15;;;;;;;3.40;1.23;;;11.80;81.70;;;;;;5026046;28;20290;-81
2023/11/04 10:22:41;;;;;;;4.38;1.15;;;11.70;81.90;;;;;;5031932;28;20287;-81
2023/11/04 10:25:07;;;;;;;3.10;1.25;;;11.60;80.00;;;;;;5013906;28;20617;-80
2023/11/04 10:27:36;;;;;;;1.30;0.75;;;11.50;79.50;;;;;;5032519;28;20060;-80
2023/11/04 10:30:03;;;;;;;2.38;1.40;;;11.40;80.90;;;;;;5027559;28;20038;-80
2023/11/04 10:32:36;;;;;;;1.67;1.13;;;11.40;80.60;;;;;;5032902;28;20040;-79
2023/11/04 10:35:12;;;;;;;2.83;1.25;;;11.30;81.80;;;;;;5027077;28;20034;-80
2023/11/04 10:37:39;;;;;;;4.50;1.45;;;11.30;81.70;;;;;;5008818;28;20573;-81
2023/11/04 10:40:05;;;;;;;3.72;1.27;;;11.30;82.10;;;;;;5030929;28;20032;-80
2023/11/04 10:42:35;;;;;;;3.38;1.20;;;11.30;80.00;;;;;;5032229;28;20048;-80
2023/11/04 10:45:11;;;;;;;3.22;1.23;;;11.30;79.80;;;;;;5027157;28;20035;-79
2023/11/04 10:47:59;;;;;;;1.98;1.13;;;11.30;78.60;;;;;;4993142;28;20038;-80
2023/11/04 10:50:39;;;;;;;1.98;0.90;;;11.30;78.70;;;;;;5026578;28;20033;-80
2023/11/04 10:53:27;;;;;;;2.95;1.10;;;11.20;79.10;;;;;;4992985;28;20027;-80
2023/11/04 10:56:02;;;;;;;1.35;0.75;;;11.20;79.70;;;;;;4992768;28;20046;-80
2023/11/04 10:58:56;;;;;;;2.00;1.13;;;11.30;79.00;;;;;;4996054;28;20038;-80
2023/11/04 11:01:23;;;;;;;2.58;0.88;;;11.30;77.70;;;;;;5032140;28;20097;-80
2023/11/04 11:03:51;;;;;;;2.10;1.17;;;11.40;79.10;;;;;;5015627;28;20038;-80
2023/11/04 11:06:17;;;;;;;1.25;0.70;;;11.40;79.10;;;;;;5032409;28;20030;-80
2023/11/04 11:08:46;;;;;;;2.80;1.95;;;11.50;75.60;;;;;;5015987;28;20102;-80
2023/11/04 11:11:21;;;;;;;3.95;2.20;;;11.50;76.70;;;;;;5032078;28;20033;-80
2023/11/04 11:13:51;;;;;;;3.95;1.63;;;11.50;77.60;;;;;;5001033;28;20025;-79
2023/11/04 11:16:17;;;;;;;1.40;0.75;;;11.50;78.20;;;;;;5030891;28;20508;-80
2023/11/04 11:18:43;;;;;;;1.80;0.60;;;11.50;76.20;;;;;;5014466;28;20025;-80
2023/11/04 11:21:09;;;;;;;1.73;0.60;;;11.50;76.40;;;;;;5031938;28;20033;-80
2023/11/04 11:23:35;;;;;;;0.70;0.30;;;11.50;74.30;;;;;;5014792;28;20088;-80
2023/11/04 11:26:05;;;;;;;0.80;0.60;;;11.50;75.20;;;;;;5031950;28;20029;-80
2023/11/04 11:28:38;;;;;;;1.60;0.60;;;11.60;76.00;;;;;;5014014;28;20379;-80
2023/11/04 11:31:05;;;;;;;2.50;0.70;;;11.60;75.60;;;;;;5031743;28;20025;-79
2023/11/04 11:33:31;;;;;;;2.70;0.68;;;11.60;74.20;;;;;;5011827;28;20034;-79
2023/11/04 11:36:00;;;;;;;0.73;0.50;;;11.60;74.20;;;;;;5024005;28;20042;-79
2023/11/04 11:38:30;;;;;;;4.00;0.70;;;11.80;75.00;;;;;;5012749;28;20038;-79
2023/11/04 11:41:05;;;;;;;1.95;0.65;;;11.90;73.10;;;;;;5031216;28;20036;-79
2023/11/04 11:43:31;;;;;;;2.20;0.60;;;11.80;71.90;;;;;;4995141;28;20026;-78
2023/11/04 11:45:58;;;;;;;1.15;0.70;;;11.70;72.40;;;;;;5029675;28;20021;-80
2023/11/04 11:48:24;;;;;;;0.75;0.57;;;11.80;71.00;;;;;;5010530;28;20026;-79
2023/11/04 11:50:49;;;;;;;1.13;0.90;;;11.80;72.80;;;;;;5030636;28;20032;-79
2023/11/04 11:53:15;;;;;;;0.75;0.57;;;11.80;73.30;;;;;;5011387;28;20383;-79
2023/11/04 11:55:42;;;;;;;4.32;1.13;;;11.80;73.00;;;;;;5029378;28;20033;-80
2023/11/04 11:58:09;;;;;;;2.10;0.70;;;11.80;73.60;;;;;;5011070;28;20052;-79
2023/11/04 12:00:36;;;;;;;1.05;0.70;;;11.80;73.80;;;;;;5029826;28;20101;-79
2023/11/04 12:03:02;;;;;;;0.60;0.40;;;11.80;72.10;;;;;;5030186;28;20048;-79
2023/11/04 12:05:27;;;;;;;1.20;0.57;;;11.80;71.60;;;;;;5029033;28;20029;-79
2023/11/04 12:07:53;;;;;;;1.13;0.40;;;11.70;72.00;;;;;;5029824;28;20393;-78
2023/11/04 12:10:19;;;;;;;1.83;1.00;;;11.60;72.00;;;;;;5027248;28;20123;-79
2023/11/04 12:12:45;;;;;;;1.27;0.60;;;11.60;71.30;;;;;;5028425;28;20061;-80
2023/11/04 12:15:12;;;;;;;1.60;0.55;;;11.60;72.60;;;;;;5026168;28;20033;-80
2023/11/04 12:17:37;;;;;;;1.38;0.70;;;11.60;71.40;;;;;;5029823;28;20025;-80
2023/11/04 12:20:04;;;;;;;1.15;0.50;;;11.70;72.70;;;;;;5009089;28;20033;-79
2023/11/04 12:22:30;;;;;;;2.25;0.70;;;11.60;73.10;;;;;;5029386;28;20436;-78
2023/11/04 12:24:56;;;;;;;1.95;0.50;;;11.60;72.70;;;;;;5010347;28;20026;-79
2023/11/04 12:27:21;;;;;;;1.58;0.63;;;11.60;71.90;;;;;;5027628;28;20036;-79
2023/11/04 12:29:52;;;;;;;0.95;0.50;;;11.50;72.00;;;;;;5022589;28;20029;-80
2023/11/04 12:32:22;;;;;;;1.30;0.50;;;11.50;73.00;;;;;;5029451;28;20477;-80
2023/11/04 12:34:52;;;;;;;2.80;0.82;;;11.50;72.50;;;;;;5022071;28;20076;-80
2023/11/04 12:37:18;;;;;;;1.42;0.70;;;11.60;73.20;;;;;;5012502;28;20047;-79
2023/11/04 12:39:44;;;;;;;2.15;0.55;;;11.50;72.50;;;;;;5028632;28;20021;-79
2023/11/04 12:42:09;;;;;;;0.93;0.63;;;11.50;71.90;;;;;;5029058;28;20025;-78
2023/11/04 12:44:38;;;;;;;0.98;0.70;;;11.50;72.40;;;;;;5020305;28;20062;-79
2023/11/04 12:47:09;;;;;;;1.00;0.55;;;11.50;72.40;;;;;;5010071;28;20032;-79
2023/11/04 12:49:36;;;;;;;0.50;0.40;;;11.50;72.90;;;;;;5026734;28;20056;-80